createdAt,value
2019-01-03T00:01:58.809Z,6.20
2019-01-03T00:07:22.975Z,6.20
2019-01-03T00:12:46.953Z,6.10
2019-01-03T00:18:17.929Z,6.20
2019-01-03T00:23:40.522Z,6.30
2019-01-03T00:29:04.631Z,6.30
2019-01-03T00:34:29.104Z,6.10
2019-01-03T00:40:01.192Z,5.90
2019-01-03T00:45:22.488Z,6.00
2019-01-03T00:50:46.588Z,6.00
2019-01-03T00:56:19.622Z,6.10
2019-01-03T01:01:43.792Z,6.10
2019-01-03T01:07:07.676Z,6.20
2019-01-03T01:12:33.002Z,6.10
2019-01-03T01:17:58.518Z,6.10
2019-01-03T01:23:23.666Z,6.00
2019-01-03T01:28:38.357Z,6.10
2019-01-03T01:34:06.440Z,6.10
2019-01-03T01:39:31.904Z,6.10
2019-01-03T01:44:53.811Z,6.10
2019-01-03T01:50:17.970Z,6.10
2019-01-03T01:55:48.996Z,6.10
2019-01-03T02:01:14.655Z,6.10
2019-01-03T02:06:34.693Z,6.10
2019-01-03T02:12:08.237Z,6.00
2019-01-03T02:17:32.258Z,6.10
2019-01-03T02:23:02.106Z,6.10
2019-01-03T02:28:33.018Z,6.00
2019-01-03T02:33:56.939Z,5.90
2019-01-03T02:39:31.144Z,6.10
2019-01-03T02:45:08.693Z,6.00
2019-01-03T02:50:36.872Z,5.90
2019-01-03T02:56:00.900Z,5.90
2019-01-03T03:01:24.862Z,6.10
2019-01-03T03:06:59.344Z,6.10
2019-01-03T03:12:30.791Z,6.00
2019-01-03T03:17:54.782Z,5.80
2019-01-03T03:23:16.604Z,6.10
2019-01-03T03:28:44.628Z,5.80
2019-01-03T03:34:22.017Z,6.00
2019-01-03T03:39:57.619Z,5.90
2019-01-03T03:45:22.792Z,5.40
2019-01-03T03:50:46.196Z,5.50
2019-01-03T03:56:14.304Z,5.90
2019-01-03T04:01:38.188Z,5.90
2019-01-03T04:07:06.449Z,5.70
2019-01-03T04:12:45.138Z,5.70
2019-01-03T04:18:04.782Z,5.70
2019-01-03T04:23:36.561Z,5.90
2019-01-03T04:29:09.691Z,5.80
2019-01-03T04:34:33.834Z,5.50
2019-01-03T04:40:17.390Z,5.40
2019-01-03T04:45:40.954Z,5.50
2019-01-03T04:51:12.198Z,5.80
2019-01-03T04:56:35.884Z,5.80
2019-01-03T05:02:10.384Z,5.60
2019-01-03T05:07:34.233Z,5.70
2019-01-03T05:13:05.741Z,5.60
2019-01-03T05:18:25.696Z,5.70
2019-01-03T05:23:41.489Z,5.70
2019-01-03T05:29:18.769Z,5.60
2019-01-03T05:34:46.059Z,5.60
2019-01-03T05:40:23.496Z,5.60
2019-01-03T05:45:47.470Z,5.40
2019-01-03T05:51:21.686Z,5.30
2019-01-03T05:56:45.842Z,5.30
2019-01-03T06:02:21.163Z,5.40
2019-01-03T06:07:54.323Z,5.60
2019-01-03T06:13:27.463Z,5.70
2019-01-03T06:18:55.742Z,5.80
2019-01-03T06:24:19.498Z,5.70
2019-01-03T06:29:48.668Z,5.80
2019-01-03T06:48:09.842Z,5.70
2019-01-03T07:06:13.867Z,5.70
2019-01-03T07:11:38.227Z,5.70
2019-01-03T07:17:02.335Z,5.70
2019-01-03T07:22:38.028Z,5.70
2019-01-03T07:28:09.800Z,5.70
2019-01-03T07:33:33.909Z,5.60
2019-01-03T07:39:02.338Z,5.50
2019-01-03T07:44:27.418Z,5.40
2019-01-03T07:49:52.077Z,5.20
2019-01-03T07:55:14.900Z,5.30
2019-01-03T08:00:46.239Z,5.30
2019-01-03T08:06:07.592Z,5.40
2019-01-03T08:11:31.615Z,5.50
2019-01-03T08:16:55.454Z,5.50
2019-01-03T08:22:19.311Z,5.60
2019-01-03T08:27:56.268Z,5.50
2019-01-03T08:33:33.786Z,5.70
2019-01-03T08:38:57.796Z,5.70
2019-01-03T08:44:18.735Z,5.20
2019-01-03T08:49:42.687Z,5.40
2019-01-03T08:55:07.047Z,5.60
2019-01-03T09:00:35.031Z,5.70
2019-01-03T09:06:19.082Z,5.70
2019-01-03T09:11:47.291Z,5.80
2019-01-03T09:17:14.946Z,6.00
2019-01-03T09:22:40.097Z,6.40
2019-01-03T09:28:04.435Z,6.60
2019-01-03T09:33:32.584Z,7.00
2019-01-03T09:38:56.378Z,8.00
2019-01-03T09:44:20.471Z,7.30
2019-01-03T09:49:26.528Z,7.10
2019-01-03T09:54:32.553Z,7.10
2019-01-03T09:59:38.601Z,7.90
2019-01-03T10:04:44.634Z,7.60
2019-01-03T10:09:50.926Z,8.60
2019-01-03T10:14:57.024Z,8.40
2019-01-03T10:20:03.216Z,7.00
2019-01-03T10:25:09.496Z,6.50
2019-01-03T10:30:15.858Z,6.70
2019-01-03T10:35:21.950Z,7.00
2019-01-03T10:40:28.103Z,7.20
2019-01-03T10:45:34.194Z,7.10
2019-01-03T10:50:40.171Z,7.00
2019-01-03T10:55:46.260Z,6.80
2019-01-03T11:00:52.448Z,6.60
2019-01-03T11:05:58.537Z,6.60
2019-01-03T11:11:04.698Z,6.60
2019-01-03T11:16:10.830Z,6.90
2019-01-03T11:21:16.910Z,6.90
2019-01-03T11:26:22.981Z,6.80
2019-01-03T11:31:28.994Z,7.00
2019-01-03T11:36:35.542Z,7.10
2019-01-03T11:41:41.764Z,7.20
2019-01-03T11:46:47.941Z,7.20
2019-01-03T11:51:53.922Z,7.10
2019-01-03T11:56:59.987Z,7.10
2019-01-03T12:02:06.381Z,6.90
2019-01-03T12:07:12.510Z,7.10
2019-01-03T12:12:18.623Z,6.80
2019-01-03T12:17:24.790Z,6.80
2019-01-03T12:22:30.901Z,7.10
2019-01-03T12:27:36.965Z,7.00
2019-01-03T12:32:43.202Z,6.90
2019-01-03T12:37:49.232Z,6.90
2019-01-03T12:42:55.406Z,7.00
2019-01-03T12:48:01.572Z,7.00
2019-01-03T12:53:07.781Z,7.00
2019-01-03T12:58:13.889Z,6.90
2019-01-03T13:03:20.469Z,7.00
2019-01-03T13:08:26.732Z,7.10
2019-01-03T13:13:32.906Z,6.90
2019-01-03T13:18:39.175Z,6.80
2019-01-03T13:23:45.252Z,6.80
2019-01-03T13:28:51.685Z,6.60
2019-01-03T13:33:58.036Z,6.70
2019-01-03T13:39:05.566Z,6.90
2019-01-03T13:44:11.826Z,6.80
2019-01-03T13:49:17.923Z,6.80
2019-01-03T13:54:24.043Z,6.90
2019-01-03T13:59:31.256Z,6.60
2019-01-03T14:04:37.914Z,6.60
2019-01-03T14:09:44.006Z,6.80
2019-01-03T14:14:50.986Z,6.60
2019-01-03T14:19:57.088Z,6.60
2019-01-03T14:25:03.506Z,6.60
2019-01-03T14:30:10.902Z,6.50
2019-01-03T14:35:17.074Z,6.70
2019-01-03T14:40:23.228Z,6.70
2019-01-03T14:45:29.662Z,6.60
2019-01-03T14:50:35.723Z,6.70
2019-01-03T14:55:41.922Z,6.60
2019-01-03T15:00:48.018Z,6.70
2019-01-03T15:05:54.104Z,6.70
2019-01-03T15:11:00.261Z,6.80
2019-01-03T15:16:06.593Z,6.70
2019-01-03T15:21:12.734Z,6.80
2019-01-03T15:26:19.083Z,6.90
2019-01-03T15:31:25.158Z,7.00
2019-01-03T15:36:31.282Z,7.00
2019-01-03T15:41:37.421Z,7.10
2019-01-03T15:46:43.566Z,7.10
2019-01-03T15:51:49.594Z,7.00
2019-01-03T15:56:55.818Z,7.00
2019-01-03T16:02:01.911Z,7.00
2019-01-03T16:07:08.042Z,7.00
2019-01-03T16:12:14.149Z,6.90
2019-01-03T16:17:20.312Z,6.90
2019-01-03T16:22:26.633Z,6.90
2019-01-03T16:27:32.819Z,6.90
2019-01-03T16:32:39.005Z,6.90
2019-01-03T16:37:45.125Z,6.90
2019-01-03T16:42:51.429Z,6.90
2019-01-03T16:47:57.571Z,6.80
2019-01-03T16:53:03.731Z,6.80
2019-01-03T16:58:10.170Z,6.80
2019-01-03T17:03:16.304Z,6.80
2019-01-03T17:08:22.496Z,6.70
2019-01-03T17:13:29.029Z,6.70
2019-01-03T17:18:36.877Z,6.70
2019-01-03T17:23:44.965Z,6.60
2019-01-03T17:28:51.239Z,6.80
2019-01-03T17:33:57.633Z,6.40
2019-01-03T17:39:04.693Z,6.10
2019-01-03T17:44:10.853Z,6.00
2019-01-03T17:49:17.241Z,5.80
2019-01-03T17:54:23.449Z,5.70
2019-01-03T17:59:30.821Z,5.60
2019-01-03T18:04:36.899Z,5.90
2019-01-03T18:09:44.781Z,5.90
2019-01-03T18:14:54.726Z,5.90
2019-01-03T18:20:01.575Z,6.00
2019-01-03T18:25:09.551Z,6.00
2019-01-03T18:30:15.689Z,5.90
2019-01-03T18:35:24.721Z,5.90
2019-01-03T18:40:34.114Z,5.90
2019-01-03T18:45:41.011Z,5.90
2019-01-03T18:50:48.611Z,5.80
2019-01-03T18:55:54.839Z,5.70
2019-01-03T19:01:02.054Z,5.80
2019-01-03T19:06:08.135Z,5.60
2019-01-03T19:11:14.286Z,5.50
2019-01-03T19:16:20.494Z,5.60
2019-01-03T19:21:26.546Z,5.80
2019-01-03T19:26:33.196Z,5.80
2019-01-03T19:31:39.303Z,5.80
2019-01-03T19:36:45.438Z,5.70
2019-01-03T19:41:51.945Z,5.80
2019-01-03T19:46:58.026Z,5.80
2019-01-03T19:52:04.185Z,5.80
2019-01-03T19:57:10.335Z,5.70
2019-01-03T20:02:16.437Z,5.60
2019-01-03T20:07:22.495Z,5.60
2019-01-03T20:12:29.879Z,5.40
2019-01-03T20:17:35.979Z,5.50
2019-01-03T20:22:42.385Z,5.50
2019-01-03T20:27:48.550Z,5.70
2019-01-03T20:32:54.632Z,5.40
2019-01-03T20:38:00.829Z,5.30
2019-01-03T20:43:08.623Z,5.30
2019-01-03T20:48:14.706Z,5.30
2019-01-03T20:53:20.809Z,5.40
2019-01-03T20:58:27.307Z,5.60
2019-01-03T21:03:33.414Z,5.80
2019-01-03T21:08:39.746Z,5.80
2019-01-03T21:13:45.944Z,5.60
2019-01-03T21:18:52.045Z,5.60
2019-01-03T21:23:58.379Z,5.40
2019-01-03T21:29:04.609Z,5.50
2019-01-03T21:34:10.757Z,5.50
2019-01-03T21:39:16.990Z,5.70
2019-01-03T21:44:23.095Z,5.80
2019-01-03T21:49:29.362Z,5.90
2019-01-03T21:54:35.526Z,5.90
2019-01-03T21:59:53.354Z,6.00
2019-01-03T22:04:59.495Z,6.00
2019-01-03T22:10:07.007Z,5.80
2019-01-03T22:15:13.122Z,5.90
2019-01-03T22:20:19.666Z,5.70
2019-01-03T22:25:26.030Z,5.50
2019-01-03T22:30:32.205Z,5.60
2019-01-03T22:35:38.451Z,5.70
2019-01-03T22:40:44.920Z,5.90
2019-01-03T22:45:51.163Z,5.90
2019-01-03T22:50:57.719Z,5.80
2019-01-03T22:56:03.806Z,5.60
2019-01-03T23:01:10.803Z,5.50
2019-01-03T23:06:16.896Z,5.40
2019-01-03T23:11:23.062Z,5.50
2019-01-03T23:16:29.279Z,5.60
2019-01-03T23:21:36.699Z,5.80
2019-01-03T23:26:42.948Z,5.90
2019-01-03T23:31:49.463Z,5.90
2019-01-03T23:36:56.019Z,6.00
2019-01-03T23:42:02.159Z,6.00
2019-01-03T23:47:09.661Z,5.90
2019-01-03T23:52:15.868Z,6.00
2019-01-03T23:57:21.922Z,5.90
